sensor_id;sensor_type;location;lat;lon;timestamp;pressure;altitude;pressure_sealevel;temperature;humidity
23574;BME280;11965;53.640;10.050;2023-02-13T00:01:51;103658.34;;;6.28;100.00
23574;BME280;11965;53.640;10.050;2023-02-13T00:04:18;103660.22;;;6.27;100.00
23574;BME280;11965;53.640;10.050;2023-02-13T00:06:45;103666.59;;;6.28;100.00
23574;BME280;11965;53.640;10.050;2023-02-13T00:09:14;103667.13;;;6.34;100.00
23574;BME280;11965;53.640;10.050;2023-02-13T00:11:41;103664.66;;;6.30;100.00
23574;BME280;11965;53.640;10.050;2023-02-13T00:14:08;103658.94;;;6.33;100.00
23574;BME280;11965;53.640;10.050;2023-02-13T00:16:35;103663.47;;;6.34;100.00
23574;BME280;11965;53.640;10.050;2023-02-13T00:19:03;103660.81;;;6.32;100.00
23574;BME280;11965;53.640;10.050;2023-02-13T00:21:32;103663.47;;;6.34;100.00
23574;BME280;11965;53.640;10.050;2023-02-13T00:23:59;103650.47;;;6.36;100.00
23574;BME280;11965;53.640;10.050;2023-02-13T00:26:27;103654.03;;;6.38;100.00
23574;BME280;11965;53.640;10.050;2023-02-13T00:28:55;103646.03;;;6.33;100.00
23574;BME280;11965;53.640;10.050;2023-02-13T00:31:23;103648.59;;;6.36;100.00
23574;BME280;11965;53.640;10.050;2023-02-13T00:33:50;103647.03;;;6.32;100.00
23574;BME280;11965;53.640;10.050;2023-02-13T00:36:19;103650.88;;;6.30;100.00
23574;BME280;11965;53.640;10.050;2023-02-13T00:38:47;103645.44;;;6.28;100.00
23574;BME280;11965;53.640;10.050;2023-02-13T00:41:15;103650.09;;;6.28;100.00
23574;BME280;11965;53.640;10.050;2023-02-13T00:43:44;103648.13;;;6.30;100.00
23574;BME280;11965;53.640;10.050;2023-02-13T00:46:11;103641.75;;;6.29;100.00
23574;BME280;11965;53.640;10.050;2023-02-13T00:48:38;103647.44;;;6.26;100.00
23574;BME280;11965;53.640;10.050;2023-02-13T00:51:06;103648.31;;;6.27;100.00
23574;BME280;11965;53.640;10.050;2023-02-13T00:53:35;103655.50;;;6.29;100.00
23574;BME280;11965;53.640;10.050;2023-02-13T00:56:03;103645.38;;;6.30;100.00
23574;BME280;11965;53.640;10.050;2023-02-13T00:58:31;103649.13;;;6.29;100.00
23574;BME280;11965;53.640;10.050;2023-02-13T01:00:59;103649.88;;;6.31;100.00
23574;BME280;11965;53.640;10.050;2023-02-13T01:03:26;103640.06;;;6.27;100.00
23574;BME280;11965;53.640;10.050;2023-02-13T01:05:55;103646.53;;;6.26;100.00
23574;BME280;11965;53.640;10.050;2023-02-13T01:08:22;103643.63;;;6.29;100.00
23574;BME280;11965;53.640;10.050;2023-02-13T01:10:49;103642.63;;;6.30;100.00
23574;BME280;11965;53.640;10.050;2023-02-13T01:13:16;103640.66;;;6.32;100.00
23574;BME280;11965;53.640;10.050;2023-02-13T01:15:44;103634.34;;;6.30;100.00
23574;BME280;11965;53.640;10.050;2023-02-13T01:18:13;103637.00;;;6.31;100.00
23574;BME280;11965;53.640;10.050;2023-02-13T01:20:40;103646.94;;;6.34;100.00
23574;BME280;11965;53.640;10.050;2023-02-13T01:23:08;103645.25;;;6.31;100.00
23574;BME280;11965;53.640;10.050;2023-02-13T01:25:40;103646.63;;;6.38;100.00
23574;BME280;11965;53.640;10.050;2023-02-13T01:28:08;103644.16;;;6.34;100.00
23574;BME280;11965;53.640;10.050;2023-02-13T01:30:35;103639.06;;;6.28;100.00
23574;BME280;11965;53.640;10.050;2023-02-13T01:33:02;103635.16;;;6.32;100.00
23574;BME280;11965;53.640;10.050;2023-02-13T01:35:30;103639.66;;;6.33;100.00
23574;BME280;11965;53.640;10.050;2023-02-13T01:37:57;103627.63;;;6.34;100.00
23574;BME280;11965;53.640;10.050;2023-02-13T01:40:24;103624.22;;;6.30;100.00
23574;BME280;11965;53.640;10.050;2023-02-13T01:42:54;103624.88;;;6.34;100.00
23574;BME280;11965;53.640;10.050;2023-02-13T01:45:25;103629.63;;;6.32;100.00
23574;BME280;11965;53.640;10.050;2023-02-13T01:47:56;103629.03;;;6.27;100.00
23574;BME280;11965;53.640;10.050;2023-02-13T01:50:33;103620.47;;;6.31;100.00
23574;BME280;11965;53.640;10.050;2023-02-13T01:53:06;103613.97;;;6.32;100.00
23574;BME280;11965;53.640;10.050;2023-02-13T01:55:40;103617.00;;;6.42;100.00
23574;BME280;11965;53.640;10.050;2023-02-13T01:58:15;103612.28;;;6.44;100.00
23574;BME280;11965;53.640;10.050;2023-02-13T02:00:45;103615.75;;;6.33;100.00
23574;BME280;11965;53.640;10.050;2023-02-13T02:03:20;103615.94;;;6.30;100.00
23574;BME280;11965;53.640;10.050;2023-02-13T02:05:53;103615.25;;;6.27;100.00
23574;BME280;11965;53.640;10.050;2023-02-13T02:08:23;103607.22;;;6.24;100.00
23574;BME280;11965;53.640;10.050;2023-02-13T02:10:54;103599.13;;;6.20;100.00
23574;BME280;11965;53.640;10.050;2023-02-13T02:13:25;103594.72;;;6.18;100.00
23574;BME280;11965;53.640;10.050;2023-02-13T02:15:52;103599.31;;;6.17;100.00
23574;BME280;11965;53.640;10.050;2023-02-13T02:18:21;103596.69;;;6.16;100.00
23574;BME280;11965;53.640;10.050;2023-02-13T02:21:16;103602.38;;;6.13;100.00
23574;BME280;11965;53.640;10.050;2023-02-13T02:30:16;103603.66;;;6.07;100.00
23574;BME280;11965;53.640;10.050;2023-02-13T02:33:02;103598.16;;;6.07;100.00
23574;BME280;11965;53.640;10.050;2023-02-13T02:35:42;103601.66;;;6.09;100.00
23574;BME280;11965;53.640;10.050;2023-02-13T02:38:28;103602.47;;;6.11;100.00
23574;BME280;11965;53.640;10.050;2023-02-13T02:41:07;103599.44;;;6.16;100.00
23574;BME280;11965;53.640;10.050;2023-02-13T02:43:51;103592.25;;;6.13;100.00
23574;BME280;11965;53.640;10.050;2023-02-13T02:46:28;103597.03;;;6.10;100.00
23574;BME280;11965;53.640;10.050;2023-02-13T02:49:04;103594.41;;;6.08;100.00
23574;BME280;11965;53.640;10.050;2023-02-13T02:52:02;103603.75;;;6.06;100.00
23574;BME280;11965;53.640;10.050;2023-02-13T02:54:38;103598.53;;;6.01;100.00
23574;BME280;11965;53.640;10.050;2023-02-13T02:57:31;103591.25;;;6.00;100.00
23574;BME280;11965;53.640;10.050;2023-02-13T03:00:14;103595.78;;;6.01;100.00
23574;BME280;11965;53.640;10.050;2023-02-13T03:02:59;103586.72;;;5.99;100.00
23574;BME280;11965;53.640;10.050;2023-02-13T03:05:47;103590.47;;;5.98;100.00
23574;BME280;11965;53.640;10.050;2023-02-13T03:08:32;103588.50;;;6.00;100.00
23574;BME280;11965;53.640;10.050;2023-02-13T03:11:13;103589.47;;;5.99;100.00
23574;BME280;11965;53.640;10.050;2023-02-13T03:14:01;103589.31;;;6.02;100.00
23574;BME280;11965;53.640;10.050;2023-02-13T03:16:31;103593.41;;;6.09;100.00
23574;BME280;11965;53.640;10.050;2023-02-13T03:19:25;103594.97;;;5.99;100.00
23574;BME280;11965;53.640;10.050;2023-02-13T03:22:24;103590.47;;;5.98;100.00
23574;BME280;11965;53.640;10.050;2023-02-13T03:25:04;103594.28;;;5.95;100.00
23574;BME280;11965;53.640;10.050;2023-02-13T03:27:42;103602.06;;;6.03;100.00
23574;BME280;11965;53.640;10.050;2023-02-13T03:30:40;103600.31;;;6.02;100.00
23574;BME280;11965;53.640;10.050;2023-02-13T03:33:26;103602.66;;;5.94;100.00
23574;BME280;11965;53.640;10.050;2023-02-13T03:36:03;103601.03;;;5.90;100.00
23574;BME280;11965;53.640;10.050;2023-02-13T03:38:57;103603.88;;;5.88;100.00
23574;BME280;11965;53.640;10.050;2023-02-13T03:41:31;103606.31;;;5.94;100.00
23574;BME280;11965;53.640;10.050;2023-02-13T03:44:11;103598.84;;;5.96;100.00
23574;BME280;11965;53.640;10.050;2023-02-13T03:49:19;103604.69;;;5.90;100.00
23574;BME280;11965;53.640;10.050;2023-02-13T03:52:18;103601.91;;;5.90;100.00
23574;BME280;11965;53.640;10.050;2023-02-13T03:54:53;103608.50;;;5.88;100.00
23574;BME280;11965;53.640;10.050;2023-02-13T03:57:43;103600.44;;;5.85;100.00
23574;BME280;11965;53.640;10.050;2023-02-13T04:00:35;103600.56;;;5.83;100.00
23574;BME280;11965;53.640;10.050;2023-02-13T04:03:12;103611.19;;;5.89;100.00
23574;BME280;11965;53.640;10.050;2023-02-13T04:05:45;103602.25;;;5.86;100.00
23574;BME280;11965;53.640;10.050;2023-02-13T04:08:13;103608.50;;;5.88;100.00
23574;BME280;11965;53.640;10.050;2023-02-13T04:10:48;103606.34;;;5.79;100.00
23574;BME280;11965;53.640;10.050;2023-02-13T04:13:25;103613.31;;;5.84;100.00
23574;BME280;11965;53.640;10.050;2023-02-13T04:15:59;103608.97;;;5.80;100.00
23574;BME280;11965;53.640;10.050;2023-02-13T04:18:31;103609.91;;;5.81;100.00
23574;BME280;11965;53.640;10.050;2023-02-13T04:21:01;103604.75;;;5.74;100.00
23574;BME280;11965;53.640;10.050;2023-02-13T04:23:28;103605.34;;;5.80;100.00
23574;BME280;11965;53.640;10.050;2023-02-13T04:26:00;103603.59;;;5.79;100.00
23574;BME280;11965;53.640;10.050;2023-02-13T04:28:28;103602.41;;;5.83;100.00
23574;BME280;11965;53.640;10.050;2023-02-13T04:30:55;103595.94;;;5.84;100.00
23574;BME280;11965;53.640;10.050;2023-02-13T04:33:22;103599.66;;;5.83;100.00
23574;BME280;11965;53.640;10.050;2023-02-13T04:35:49;103597.97;;;5.80;100.00
23574;BME280;11965;53.640;10.050;2023-02-13T04:38:16;103604.47;;;5.79;100.00
23574;BME280;11965;53.640;10.050;2023-02-13T04:40:43;103610.06;;;5.78;100.00
23574;BME280;11965;53.640;10.050;2023-02-13T04:43:11;103603.78;;;5.75;100.00
23574;BME280;11965;53.640;10.050;2023-02-13T04:45:38;103599.25;;;5.74;100.00
23574;BME280;11965;53.640;10.050;2023-02-13T04:48:05;103607.81;;;5.70;100.00
23574;BME280;11965;53.640;10.050;2023-02-13T04:50:32;103608.69;;;5.70;100.00
23574;BME280;11965;53.640;10.050;2023-02-13T04:52:58;103606.91;;;5.69;100.00
23574;BME280;11965;53.640;10.050;2023-02-13T04:55:27;103604.16;;;5.69;100.00
23574;BME280;11965;53.640;10.050;2023-02-13T04:57:54;103604.06;;;5.71;100.00
23574;BME280;11965;53.640;10.050;2023-02-13T05:00:25;103603.25;;;5.69;100.00
23574;BME280;11965;53.640;10.050;2023-02-13T05:02:53;103613.91;;;5.75;100.00
23574;BME280;11965;53.640;10.050;2023-02-13T05:05:20;103612.25;;;5.72;100.00
23574;BME280;11965;53.640;10.050;2023-02-13T05:07:47;103603.19;;;5.70;100.00
23574;BME280;11965;53.640;10.050;2023-02-13T05:10:13;103612.31;;;5.71;100.00
23574;BME280;11965;53.640;10.050;2023-02-13T05:12:40;103607.00;;;5.68;100.00
23574;BME280;11965;53.640;10.050;2023-02-13T05:15:08;103603.47;;;5.66;100.00
23574;BME280;11965;53.640;10.050;2023-02-13T05:17:36;103602.59;;;5.65;100.00
23574;BME280;11965;53.640;10.050;2023-02-13T05:20:04;103608.09;;;5.65;100.00
23574;BME280;11965;53.640;10.050;2023-02-13T05:22:31;103611.81;;;5.64;100.00
23574;BME280;11965;53.640;10.050;2023-02-13T05:25:15;103606.50;;;5.61;100.00
23574;BME280;11965;53.640;10.050;2023-02-13T05:27:42;103607.19;;;5.65;100.00
23574;BME280;11965;53.640;10.050;2023-02-13T05:30:10;103607.28;;;5.63;100.00
23574;BME280;11965;53.640;10.050;2023-02-13T05:32:39;103606.22;;;5.66;100.00
23574;BME280;11965;53.640;10.050;2023-02-13T05:35:08;103602.59;;;5.65;100.00
23574;BME280;11965;53.640;10.050;2023-02-13T05:37:35;103610.66;;;5.68;100.00
23574;BME280;11965;53.640;10.050;2023-02-13T05:40:02;103595.88;;;5.69;100.00
23574;BME280;11965;53.640;10.050;2023-02-13T05:42:28;103608.97;;;5.66;100.00
23574;BME280;11965;53.640;10.050;2023-02-13T05:44:55;103609.75;;;5.68;100.00
23574;BME280;11965;53.640;10.050;2023-02-13T05:47:22;103607.88;;;5.68;100.00
23574;BME280;11965;53.640;10.050;2023-02-13T05:49:50;103603.19;;;5.70;100.00
23574;BME280;11965;53.640;10.050;2023-02-13T05:52:17;103608.88;;;5.67;100.00
23574;BME280;11965;53.640;10.050;2023-02-13T05:54:44;103615.66;;;5.62;100.00
23574;BME280;11965;53.640;10.050;2023-02-13T05:57:11;103615.47;;;5.65;100.00
23574;BME280;11965;53.640;10.050;2023-02-13T05:59:37;103603.66;;;5.63;100.00
23574;BME280;11965;53.640;10.050;2023-02-13T06:02:04;103616.53;;;5.62;100.00
23574;BME280;11965;53.640;10.050;2023-02-13T06:04:31;103608.88;;;5.67;100.00
23574;BME280;11965;53.640;10.050;2023-02-13T06:06:59;103608.09;;;5.65;100.00
23574;BME280;11965;53.640;10.050;2023-02-13T06:09:26;103608.28;;;5.62;100.00
23574;BME280;11965;53.640;10.050;2023-02-13T06:11:53;103612.91;;;5.62;100.00
23574;BME280;11965;53.640;10.050;2023-02-13T06:14:20;103617.50;;;5.61;100.00
23574;BME280;11965;53.640;10.050;2023-02-13T06:16:47;103625.88;;;5.60;100.00
23574;BME280;11965;53.640;10.050;2023-02-13T06:19:13;103611.38;;;5.56;100.00
23574;BME280;11965;53.640;10.050;2023-02-13T06:21:40;103621.63;;;5.54;100.00
23574;BME280;11965;53.640;10.050;2023-02-13T06:24:08;103622.50;;;5.54;100.00
23574;BME280;11965;53.640;10.050;2023-02-13T06:26:35;103628.00;;;5.54;100.00
23574;BME280;11965;53.640;10.050;2023-02-13T06:29:02;103615.25;;;5.53;100.00
23574;BME280;11965;53.640;10.050;2023-02-13T06:31:29;103620.75;;;5.53;100.00
23574;BME280;11965;53.640;10.050;2023-02-13T06:33:56;103614.31;;;5.53;100.00
23574;BME280;11965;53.640;10.050;2023-02-13T06:36:22;103620.56;;;5.57;100.00
23574;BME280;11965;53.640;10.050;2023-02-13T06:38:49;103630.56;;;5.58;100.00
23574;BME280;11965;53.640;10.050;2023-02-13T06:41:18;103631.63;;;5.55;100.00
23574;BME280;11965;53.640;10.050;2023-02-13T06:43:44;103640.78;;;5.56;100.00
23574;BME280;11965;53.640;10.050;2023-02-13T06:46:11;103636.34;;;5.53;100.00
23574;BME280;11965;53.640;10.050;2023-02-13T06:48:38;103642.75;;;5.53;100.00
23574;BME280;11965;53.640;10.050;2023-02-13T06:51:05;103639.88;;;5.55;100.00
23574;BME280;11965;53.640;10.050;2023-02-13T06:53:32;103648.94;;;5.57;100.00
23574;BME280;11965;53.640;10.050;2023-02-13T06:56:03;103649.13;;;5.54;100.00
23574;BME280;11965;53.640;10.050;2023-02-13T06:58:33;103660.03;;;5.56;100.00
23574;BME280;11965;53.640;10.050;2023-02-13T07:01:00;103659.25;;;5.53;100.00
23574;BME280;11965;53.640;10.050;2023-02-13T07:03:26;103665.34;;;5.59;100.00
23574;BME280;11965;53.640;10.050;2023-02-13T07:05:53;103662.59;;;5.59;100.00
23574;BME280;11965;53.640;10.050;2023-02-13T07:08:21;103670.75;;;5.60;100.00
23574;BME280;11965;53.640;10.050;2023-02-13T07:10:48;103663.41;;;5.61;100.00
23574;BME280;11965;53.640;10.050;2023-02-13T07:13:15;103676.34;;;5.59;100.00
23574;BME280;11965;53.640;10.050;2023-02-13T07:15:43;103672.03;;;5.54;100.00
23574;BME280;11965;53.640;10.050;2023-02-13T07:18:10;103670.75;;;5.60;100.00
23574;BME280;11965;53.640;10.050;2023-02-13T07:20:37;103673.53;;;5.60;100.00
23574;BME280;11965;53.640;10.050;2023-02-13T07:23:04;103673.94;;;5.68;100.00
23574;BME280;11965;53.640;10.050;2023-02-13T07:25:33;103668.63;;;5.65;100.00
23574;BME280;11965;53.640;10.050;2023-02-13T07:28:01;103666.16;;;5.61;100.00
23574;BME280;11965;53.640;10.050;2023-02-13T07:30:28;103670.50;;;5.65;100.00
23574;BME280;11965;53.640;10.050;2023-02-13T07:32:58;103675.28;;;5.61;100.00
23574;BME280;11965;53.640;10.050;2023-02-13T07:35:25;103678.38;;;5.71;100.00
23574;BME280;11965;53.640;10.050;2023-02-13T07:37:53;103676.91;;;5.80;100.00
23574;BME280;11965;53.640;10.050;2023-02-13T07:40:20;103676.22;;;5.76;100.00
23574;BME280;11965;53.640;10.050;2023-02-13T07:42:47;103677.50;;;6.01;100.00
23574;BME280;11965;53.640;10.050;2023-02-13T07:45:14;103667.69;;;5.96;100.00
23574;BME280;11965;53.640;10.050;2023-02-13T07:47:42;103681.94;;;6.03;100.00
23574;BME280;11965;53.640;10.050;2023-02-13T07:50:11;103682.72;;;6.05;100.00
23574;BME280;11965;53.640;10.050;2023-02-13T07:52:38;103682.41;;;6.10;100.00
23574;BME280;11965;53.640;10.050;2023-02-13T07:55:05;103688.53;;;6.15;100.00
23574;BME280;11965;53.640;10.050;2023-02-13T07:57:33;103689.44;;;6.15;100.00
23574;BME280;11965;53.640;10.050;2023-02-13T07:59:59;103692.06;;;6.17;100.00
23574;BME280;11965;53.640;10.050;2023-02-13T08:02:37;103692.97;;;6.17;100.00
23574;BME280;11965;53.640;10.050;2023-02-13T08:05:05;103690.31;;;6.16;100.00
23574;BME280;11965;53.640;10.050;2023-02-13T08:07:33;103694.44;;;6.09;100.00
23574;BME280;11965;53.640;10.050;2023-02-13T08:10:00;103695.91;;;6.14;100.00
23574;BME280;11965;53.640;10.050;2023-02-13T08:12:46;103695.72;;;6.17;100.00
23574;BME280;11965;53.640;10.050;2023-02-13T08:15:14;103697.09;;;6.10;100.00
23574;BME280;11965;53.640;10.050;2023-02-13T08:17:41;103705.16;;;6.13;100.00
23574;BME280;11965;53.640;10.050;2023-02-13T08:20:08;103707.72;;;6.16;100.00
23574;BME280;11965;53.640;10.050;2023-02-13T08:22:38;103702.69;;;6.23;100.00
23574;BME280;11965;53.640;10.050;2023-02-13T08:25:07;103696.13;;;6.26;100.00
23574;BME280;11965;53.640;10.050;2023-02-13T08:27:33;103704.22;;;6.29;100.00
23574;BME280;11965;53.640;10.050;2023-02-13T08:30:01;103712.28;;;6.32;100.00
23574;BME280;11965;53.640;10.050;2023-02-13T08:32:28;103703.22;;;6.30;100.00
23574;BME280;11965;53.640;10.050;2023-02-13T08:34:55;103696.81;;;6.29;100.00
23574;BME280;11965;53.640;10.050;2023-02-13T08:37:23;103698.50;;;6.32;100.00
23574;BME280;11965;53.640;10.050;2023-02-13T08:39:51;103694.84;;;6.31;100.00
23574;BME280;11965;53.640;10.050;2023-02-13T08:42:18;103694.75;;;6.33;100.00
23574;BME280;11965;53.640;10.050;2023-02-13T08:44:45;103695.75;;;6.32;100.00
23574;BME280;11965;53.640;10.050;2023-02-13T08:47:12;103699.28;;;6.34;100.00
23574;BME280;11965;53.640;10.050;2023-02-13T08:49:39;103695.28;;;6.39;100.00
23574;BME280;11965;53.640;10.050;2023-02-13T08:52:06;103697.63;;;6.46;100.00
23574;BME280;11965;53.640;10.050;2023-02-13T08:54:33;103696.34;;;6.51;100.00
23574;BME280;11965;53.640;10.050;2023-02-13T08:57:02;103694.28;;;6.55;100.00
23574;BME280;11965;53.640;10.050;2023-02-13T08:59:29;103697.63;;;6.46;100.00
23574;BME280;11965;53.640;10.050;2023-02-13T09:01:56;103692.59;;;6.52;100.00
23574;BME280;11965;53.640;10.050;2023-02-13T09:04:22;103697.81;;;6.57;100.00
23574;BME280;11965;53.640;10.050;2023-02-13T09:06:49;103694.97;;;6.58;100.00
23574;BME280;11965;53.640;10.050;2023-02-13T09:09:16;103702.25;;;6.59;100.00
23574;BME280;11965;53.640;10.050;2023-02-13T09:11:43;103693.56;;;6.66;100.00
23574;BME280;11965;53.640;10.050;2023-02-13T09:14:12;103700.47;;;6.73;100.00
23574;BME280;11965;53.640;10.050;2023-02-13T09:16:38;103702.94;;;6.77;100.00
23574;BME280;11965;53.640;10.050;2023-02-13T09:19:06;103703.63;;;6.81;100.00
23574;BME280;11965;53.640;10.050;2023-02-13T09:21:33;103705.16;;;6.85;100.00
23574;BME280;11965;53.640;10.050;2023-02-13T09:24:00;103707.25;;;6.81;100.00
23574;BME280;11965;53.640;10.050;2023-02-13T09:26:27;103704.22;;;6.86;100.00
23574;BME280;11965;53.640;10.050;2023-02-13T09:28:53;103698.41;;;6.91;100.00
23574;BME280;11965;53.640;10.050;2023-02-13T09:31:22;103701.91;;;6.93;100.00
23574;BME280;11965;53.640;10.050;2023-02-13T09:33:49;103704.59;;;6.94;100.00
23574;BME280;11965;53.640;10.050;2023-02-13T09:36:18;103709.97;;;6.96;100.00
23574;BME280;11965;53.640;10.050;2023-02-13T09:38:46;103707.94;;;6.99;100.00
23574;BME280;11965;53.640;10.050;2023-02-13T09:41:18;103707.94;;;6.99;100.00
23574;BME280;11965;53.640;10.050;2023-02-13T09:43:50;103704.88;;;7.04;100.00
23574;BME280;11965;53.640;10.050;2023-02-13T09:46:22;103698.66;;;7.00;100.00
23574;BME280;11965;53.640;10.050;2023-02-13T09:48:54;103703.00;;;7.04;100.00
23574;BME280;11965;53.640;10.050;2023-02-13T09:51:24;103706.63;;;7.05;100.00
23574;BME280;11965;53.640;10.050;2023-02-13T09:53:56;103705.75;;;7.04;100.00
23574;BME280;11965;53.640;10.050;2023-02-13T09:56:38;103701.78;;;7.08;100.00
23574;BME280;11965;53.640;10.050;2023-02-13T09:59:24;103691.25;;;7.15;100.00
23574;BME280;11965;53.640;10.050;2023-02-13T10:02:03;103697.34;;;7.20;100.00
23574;BME280;11965;53.640;10.050;2023-02-13T10:04:47;103694.75;;;7.17;100.00
23574;BME280;11965;53.640;10.050;2023-02-13T10:07:29;103697.13;;;7.23;100.00
23574;BME280;11965;53.640;10.050;2023-02-13T10:10:14;103697.00;;;7.25;100.00
23574;BME280;11965;53.640;10.050;2023-02-13T10:13:10;103700.25;;;7.32;100.00
23574;BME280;11965;53.640;10.050;2023-02-13T10:15:50;103698.09;;;7.37;100.00
23574;BME280;11965;53.640;10.050;2023-02-13T10:18:26;103691.34;;;7.41;100.00
23574;BME280;11965;53.640;10.050;2023-02-13T10:21:00;103696.41;;;7.34;100.00
23574;BME280;11965;53.640;10.050;2023-02-13T10:23:33;103687.50;;;7.43;100.00
23574;BME280;11965;53.640;10.050;2023-02-13T10:26:11;103688.84;;;7.50;100.00
23574;BME280;11965;53.640;10.050;2023-02-13T10:28:47;103683.19;;;7.39;100.00
23574;BME280;11965;53.640;10.050;2023-02-13T10:31:38;103686.56;;;7.57;100.00
23574;BME280;11965;53.640;10.050;2023-02-13T10:34:14;103687.25;;;7.73;100.00
23574;BME280;11965;53.640;10.050;2023-02-13T10:36:44;103690.50;;;7.80;100.00
23574;BME280;11965;53.640;10.050;2023-02-13T10:39:21;103691.28;;;7.82;100.00
23574;BME280;11965;53.640;10.050;2023-02-13T10:41:52;103701.97;;;7.87;98.70
23574;BME280;11965;53.640;10.050;2023-02-13T10:44:43;103687.59;;;7.82;97.50
23574;BME280;11965;53.640;10.050;2023-02-13T10:47:28;103690.63;;;7.91;94.91
23574;BME280;11965;53.640;10.050;2023-02-13T10:50:13;103681.47;;;7.91;98.08
23574;BME280;11965;53.640;10.050;2023-02-13T10:52:52;103677.94;;;8.02;99.23
23574;BME280;11965;53.640;10.050;2023-02-13T10:55:42;103678.84;;;8.15;99.30
23574;BME280;11965;53.640;10.050;2023-02-13T10:58:17;103680.94;;;8.11;94.91
23574;BME280;11965;53.640;10.050;2023-02-13T11:00:50;103680.25;;;8.08;97.27
23574;BME280;11965;53.640;10.050;2023-02-13T11:03:24;103673.41;;;8.13;96.53
23574;BME280;11965;53.640;10.050;2023-02-13T11:05:54;103677.59;;;8.19;93.49
23574;BME280;11965;53.640;10.050;2023-02-13T11:08:23;103686.66;;;8.08;94.19
23574;BME280;11965;53.640;10.050;2023-02-13T11:10:51;103672.09;;;8.06;94.31
23574;BME280;11965;53.640;10.050;2023-02-13T11:13:20;103670.00;;;8.10;94.62
23574;BME280;11965;53.640;10.050;2023-02-13T11:16:03;103665.69;;;8.18;94.46
23574;BME280;11965;53.640;10.050;2023-02-13T11:18:33;103668.22;;;8.22;100.00
23574;BME280;11965;53.640;10.050;2023-02-13T11:21:06;103667.56;;;8.31;97.42
23574;BME280;11965;53.640;10.050;2023-02-13T11:23:37;103663.69;;;8.33;98.63
23574;BME280;11965;53.640;10.050;2023-02-13T11:26:09;103664.56;;;8.34;95.93
23574;BME280;11965;53.640;10.050;2023-02-13T11:28:46;103663.06;;;8.43;93.68
23574;BME280;11965;53.640;10.050;2023-02-13T11:31:22;103656.06;;;8.24;93.65
23574;BME280;11965;53.640;10.050;2023-02-13T11:33:50;103656.50;;;8.31;90.34
23574;BME280;11965;53.640;10.050;2023-02-13T11:36:25;103656.75;;;8.28;89.28
23574;BME280;11965;53.640;10.050;2023-02-13T11:38:58;103655.22;;;8.49;90.77
23574;BME280;11965;53.640;10.050;2023-02-13T11:41:28;103653.09;;;8.40;90.25
23574;BME280;11965;53.640;10.050;2023-02-13T11:43:58;103655.78;;;8.42;93.02
23574;BME280;11965;53.640;10.050;2023-02-13T11:46:28;103652.19;;;8.27;90.26
23574;BME280;11965;53.640;10.050;2023-02-13T11:49:00;103659.84;;;8.36;91.60
23574;BME280;11965;53.640;10.050;2023-02-13T11:51:41;103662.69;;;8.22;94.31
23574;BME280;11965;53.640;10.050;2023-02-13T11:54:24;103662.91;;;8.31;92.36
23574;BME280;11965;53.640;10.050;2023-02-13T11:56:54;103664.91;;;8.29;91.67
23574;BME280;11965;53.640;10.050;2023-02-13T11:59:24;103663.34;;;8.38;98.22
23574;BME280;11965;53.640;10.050;2023-02-13T12:02:11;103662.81;;;8.33;89.44
23574;BME280;11965;53.640;10.050;2023-02-13T12:04:39;103647.53;;;8.27;92.02
23574;BME280;11965;53.640;10.050;2023-02-13T12:07:16;103653.06;;;8.27;95.61
23574;BME280;11965;53.640;10.050;2023-02-13T12:09:48;103650.09;;;8.30;94.18
23574;BME280;11965;53.640;10.050;2023-02-13T12:12:21;103646.44;;;8.30;91.70
23574;BME280;11965;53.640;10.050;2023-02-13T12:14:51;103646.47;;;8.43;91.98
23574;BME280;11965;53.640;10.050;2023-02-13T12:17:22;103637.84;;;8.47;91.82
23574;BME280;11965;53.640;10.050;2023-02-13T12:19:51;103640.38;;;8.50;90.74
23574;BME280;11965;53.640;10.050;2023-02-13T12:22:29;103650.25;;;8.42;90.09
23574;BME280;11965;53.640;10.050;2023-02-13T12:25:24;103644.72;;;8.42;93.55
23574;BME280;11965;53.640;10.050;2023-02-13T12:28:06;103651.44;;;8.50;92.00
23574;BME280;11965;53.640;10.050;2023-02-13T12:30:55;103640.06;;;8.55;91.93
23574;BME280;11965;53.640;10.050;2023-02-13T12:33:44;103648.22;;;8.56;90.73
23574;BME280;11965;53.640;10.050;2023-02-13T12:36:19;103638.16;;;8.55;93.22
23574;BME280;11965;53.640;10.050;2023-02-13T12:39:04;103633.72;;;8.66;91.58
23574;BME280;11965;53.640;10.050;2023-02-13T12:41:43;103633.97;;;8.62;89.09
23574;BME280;11965;53.640;10.050;2023-02-13T12:44:32;103638.03;;;8.57;90.96
23574;BME280;11965;53.640;10.050;2023-02-13T12:47:14;103635.53;;;8.41;87.95
23574;BME280;11965;53.640;10.050;2023-02-13T12:52:59;103627.13;;;8.43;88.92
23574;BME280;11965;53.640;10.050;2023-02-13T12:56:02;103624.66;;;8.51;91.68
23574;BME280;11965;53.640;10.050;2023-02-13T12:58:48;103627.31;;;8.65;91.35
23574;BME280;11965;53.640;10.050;2023-02-13T13:01:27;103630.97;;;8.66;90.18
23574;BME280;11965;53.640;10.050;2023-02-13T13:04:10;103631.84;;;8.66;88.89
23574;BME280;11965;53.640;10.050;2023-02-13T13:06:54;103623.41;;;8.68;89.54
23574;BME280;11965;53.640;10.050;2023-02-13T13:09:53;103630.84;;;8.67;88.18
23574;BME280;11965;53.640;10.050;2023-02-13T13:12:37;103621.13;;;8.49;89.24
23574;BME280;11965;53.640;10.050;2023-02-13T13:15:13;103626.88;;;8.46;89.11
23574;BME280;11965;53.640;10.050;2023-02-13T13:17:56;103625.56;;;8.38;88.69
23574;BME280;11965;53.640;10.050;2023-02-13T13:20:55;103629.75;;;8.31;90.69
23574;BME280;11965;53.640;10.050;2023-02-13T13:23:31;103632.63;;;8.30;89.81